createdAt,value
2018-11-26T00:01:57.898Z,99396.00
2018-11-26T00:04:25.596Z,99398.00
2018-11-26T00:06:53.569Z,99401.00
2018-11-26T00:09:21.248Z,99400.00
2018-11-26T00:11:48.953Z,99397.00
2018-11-26T00:14:16.823Z,99397.00
2018-11-26T00:16:44.482Z,99396.00
2018-11-26T00:19:12.100Z,99393.00
2018-11-26T00:21:40.538Z,99391.00
2018-11-26T00:24:08.185Z,99389.00
2018-11-26T00:26:49.098Z,99382.00
2018-11-26T00:29:16.896Z,99382.00
2018-11-26T00:31:44.564Z,99383.00
2018-11-26T00:34:12.392Z,99373.00
2018-11-26T00:36:40.069Z,99360.00
2018-11-26T00:39:09.433Z,99364.00
2018-11-26T00:41:37.205Z,99371.00
2018-11-26T00:44:05.510Z,99368.00
2018-11-26T00:46:33.197Z,99379.00
2018-11-26T00:49:00.974Z,99369.00
2018-11-26T00:51:28.672Z,99372.00
2018-11-26T00:53:56.408Z,99373.00
2018-11-26T00:56:24.161Z,99376.00
2018-11-26T00:58:51.814Z,99378.00
2018-11-26T01:01:19.447Z,99373.00
2018-11-26T01:03:47.356Z,99370.00
2018-11-26T01:06:15.008Z,99370.00
2018-11-26T01:08:42.648Z,99363.00
2018-11-26T01:11:10.573Z,99367.00
2018-11-26T01:13:38.241Z,99363.00
2018-11-26T01:16:05.906Z,99362.00
2018-11-26T01:18:33.833Z,99358.00
2018-11-26T01:21:02.344Z,99354.00
2018-11-26T01:23:30.070Z,99354.00
2018-11-26T01:25:58.010Z,99349.00
2018-11-26T01:28:25.646Z,99356.00
2018-11-26T01:30:53.312Z,99352.00
2018-11-26T01:33:21.841Z,99358.00
2018-11-26T01:35:49.487Z,99352.00
2018-11-26T01:38:17.105Z,99350.00
2018-11-26T01:40:47.703Z,99351.00
2018-11-26T01:43:15.482Z,99348.00
2018-11-26T01:45:43.134Z,99345.00
2018-11-26T01:48:10.722Z,99342.00
2018-11-26T01:50:38.441Z,99346.00
2018-11-26T01:53:06.712Z,99340.00
2018-11-26T01:55:34.809Z,99340.00
2018-11-26T01:58:02.551Z,99340.00
2018-11-26T02:00:30.217Z,99338.00
2018-11-26T02:02:57.902Z,99337.00
2018-11-26T02:05:25.802Z,99338.00
2018-11-26T02:07:53.531Z,99334.00
2018-11-26T02:10:21.187Z,99330.00
2018-11-26T02:12:49.415Z,99332.00
2018-11-26T02:15:39.968Z,99334.00
2018-11-26T02:18:08.498Z,99333.00
2018-11-26T02:20:36.145Z,99332.00
2018-11-26T02:23:03.805Z,99331.00
2018-11-26T02:25:31.527Z,99337.00
2018-11-26T02:27:59.148Z,99334.00
2018-11-26T02:30:26.913Z,99328.00
2018-11-26T02:32:54.772Z,99331.00
2018-11-26T02:35:22.448Z,99331.00
2018-11-26T02:37:51.027Z,99343.00
2018-11-26T02:40:21.649Z,99340.00
2018-11-26T02:42:49.497Z,99341.00
2018-11-26T02:45:17.168Z,99338.00
2018-11-26T02:47:45.007Z,99335.00
2018-11-26T02:50:12.602Z,99338.00
2018-11-26T02:52:40.212Z,99336.00
2018-11-26T02:55:08.113Z,99337.00
2018-11-26T02:57:35.773Z,99334.00
2018-11-26T03:00:05.046Z,99336.00
2018-11-26T03:02:33.111Z,99331.00
2018-11-26T03:05:00.752Z,99332.00
2018-11-26T03:07:28.366Z,99336.00
2018-11-26T03:09:56.297Z,99331.00
2018-11-26T03:12:23.941Z,99333.00
2018-11-26T03:14:51.597Z,99335.00
2018-11-26T03:17:20.028Z,99337.00
2018-11-26T03:19:47.656Z,99334.00
2018-11-26T03:22:15.318Z,99333.00
2018-11-26T03:24:43.196Z,99334.00
2018-11-26T03:27:10.891Z,99331.00
2018-11-26T03:29:38.739Z,99330.00
2018-11-26T03:32:06.400Z,99331.00
2018-11-26T03:34:34.000Z,99339.00
2018-11-26T03:37:01.952Z,99332.00
2018-11-26T03:39:29.568Z,99336.00
2018-11-26T03:41:57.229Z,99339.00
2018-11-26T03:44:25.159Z,99338.00
2018-11-26T03:46:52.804Z,99337.00
2018-11-26T03:49:20.271Z,99338.00
2018-11-26T03:51:48.149Z,99338.00
2018-11-26T03:54:15.797Z,99336.00
2018-11-26T03:56:43.431Z,99332.00
2018-11-26T03:59:11.423Z,99330.00
2018-11-26T04:01:39.129Z,99329.00
2018-11-26T04:04:06.777Z,99321.00
2018-11-26T04:06:34.554Z,99323.00
2018-11-26T04:09:02.235Z,99322.00
2018-11-26T04:11:29.880Z,99329.00
2018-11-26T04:13:57.996Z,99331.00
2018-11-26T04:16:25.957Z,99333.00
2018-11-26T04:18:53.601Z,99338.00
2018-11-26T04:21:21.524Z,99335.00
2018-11-26T04:23:49.873Z,99330.00
2018-11-26T04:26:17.568Z,99335.00
2018-11-26T04:28:45.621Z,99334.00
2018-11-26T04:31:13.270Z,99335.00
2018-11-26T04:33:40.951Z,99339.00
2018-11-26T04:36:15.560Z,99333.00
2018-11-26T04:38:43.186Z,99333.00
2018-11-26T04:41:10.826Z,99341.00
2018-11-26T04:43:38.799Z,99339.00
2018-11-26T04:46:06.445Z,99342.00
2018-11-26T04:48:34.397Z,99348.00
2018-11-26T04:51:02.307Z,99346.00
2018-11-26T04:53:30.603Z,99339.00
2018-11-26T04:55:58.309Z,99344.00
2018-11-26T04:58:26.019Z,99342.00
2018-11-26T05:00:53.783Z,99346.00
2018-11-26T05:03:21.388Z,99349.00
2018-11-26T05:05:49.146Z,99345.00
2018-11-26T05:08:16.806Z,99352.00
2018-11-26T05:10:44.508Z,99347.00
2018-11-26T05:13:12.435Z,99346.00
2018-11-26T05:15:40.064Z,99348.00
2018-11-26T05:18:07.756Z,99354.00
2018-11-26T05:20:35.627Z,99349.00
2018-11-26T05:23:03.267Z,99353.00
2018-11-26T05:25:30.903Z,99351.00
2018-11-26T05:27:58.778Z,99355.00
2018-11-26T05:30:26.401Z,99359.00
2018-11-26T05:32:54.012Z,99360.00
2018-11-26T05:35:21.964Z,99363.00
2018-11-26T05:37:49.648Z,99359.00
2018-11-26T05:40:17.543Z,99353.00
2018-11-26T05:42:45.570Z,99354.00
2018-11-26T05:45:14.120Z,99365.00
2018-11-26T05:47:41.813Z,99356.00
2018-11-26T05:50:11.048Z,99365.00
2018-11-26T05:52:39.249Z,99362.00
2018-11-26T05:55:11.484Z,99361.00
2018-11-26T05:57:39.105Z,99355.00
2018-11-26T06:00:10.804Z,99361.00
2018-11-26T06:02:38.511Z,99366.00
2018-11-26T06:05:06.521Z,99362.00
2018-11-26T06:07:34.233Z,99360.00
2018-11-26T06:10:02.026Z,99363.00
2018-11-26T06:12:30.024Z,99361.00
2018-11-26T06:15:11.946Z,99360.00
2018-11-26T06:17:40.028Z,99363.00
2018-11-26T06:20:26.162Z,99362.00
2018-11-26T06:22:54.616Z,99361.00
2018-11-26T06:25:53.223Z,99364.00
2018-11-26T06:28:36.212Z,99373.00
2018-11-26T06:31:18.372Z,99379.00
2018-11-26T06:33:46.185Z,99370.00
2018-11-26T06:36:13.910Z,99370.00
2018-11-26T06:38:41.619Z,99367.00
2018-11-26T06:41:09.679Z,99372.00
2018-11-26T06:43:37.393Z,99373.00
2018-11-26T06:46:06.418Z,99378.00
2018-11-26T06:48:34.669Z,99379.00
2018-11-26T06:51:02.188Z,99375.00
2018-11-26T06:53:29.853Z,99380.00
2018-11-26T06:55:57.906Z,99382.00
2018-11-26T06:58:25.529Z,99386.00
2018-11-26T07:00:53.181Z,99386.00
2018-11-26T07:03:21.125Z,99388.00
2018-11-26T07:05:48.830Z,99391.00
2018-11-26T07:08:16.912Z,99391.00
2018-11-26T07:10:44.577Z,99390.00
2018-11-26T07:13:12.195Z,99390.00
2018-11-26T07:15:40.512Z,99392.00
2018-11-26T07:18:08.200Z,99389.00
2018-11-26T07:20:36.836Z,99398.00
2018-11-26T07:23:05.042Z,99390.00
2018-11-26T07:25:32.760Z,99390.00
2018-11-26T07:28:00.633Z,99393.00
2018-11-26T07:30:29.625Z,99392.00
2018-11-26T07:32:58.138Z,99403.00
2018-11-26T07:35:25.829Z,99398.00
2018-11-26T07:37:53.698Z,99401.00
2018-11-26T07:40:22.020Z,99403.00
2018-11-26T07:42:58.549Z,99408.00
2018-11-26T07:45:26.236Z,99417.00
2018-11-26T07:47:53.895Z,99410.00
2018-11-26T07:50:21.750Z,99413.00
2018-11-26T07:52:49.796Z,99414.00
2018-11-26T07:55:18.580Z,99409.00
2018-11-26T07:57:47.707Z,99418.00
2018-11-26T08:00:16.359Z,99412.00
2018-11-26T08:02:44.433Z,99416.00
2018-11-26T08:05:15.338Z,99424.00
2018-11-26T08:07:42.975Z,99423.00
2018-11-26T08:10:13.818Z,99424.00
2018-11-26T08:12:42.089Z,99427.00
2018-11-26T08:15:13.115Z,99429.00
2018-11-26T08:17:41.009Z,99435.00
2018-11-26T08:20:09.332Z,99428.00
2018-11-26T08:22:37.034Z,99437.00
2018-11-26T08:25:11.913Z,99434.00
2018-11-26T08:27:40.006Z,99431.00
2018-11-26T08:30:17.612Z,99429.00
2018-11-26T08:32:48.280Z,99431.00
2018-11-26T08:35:16.363Z,99430.00
2018-11-26T08:37:49.798Z,99435.00
2018-11-26T08:40:23.168Z,99433.00
2018-11-26T08:42:55.617Z,99435.00
2018-11-26T08:45:28.809Z,99434.00
2018-11-26T08:48:03.080Z,99441.00
2018-11-26T08:50:30.681Z,99440.00
2018-11-26T08:52:58.385Z,99440.00
2018-11-26T08:55:26.417Z,99449.00
2018-11-26T08:57:54.096Z,99454.00
2018-11-26T09:00:21.765Z,99450.00
2018-11-26T09:03:00.352Z,99455.00
2018-11-26T09:05:36.011Z,99461.00
2018-11-26T09:08:03.747Z,99464.00
2018-11-26T09:10:31.390Z,99470.00
2018-11-26T09:12:59.001Z,99468.00
2018-11-26T09:15:26.986Z,99468.00
2018-11-26T09:17:55.275Z,99467.00
2018-11-26T09:20:23.086Z,99469.00
2018-11-26T09:22:51.005Z,99473.00
2018-11-26T09:25:18.825Z,99472.00
2018-11-26T09:27:46.496Z,99475.00
2018-11-26T09:30:14.628Z,99469.00
2018-11-26T09:32:42.646Z,99474.00
2018-11-26T09:35:12.557Z,99476.00
2018-11-26T09:37:40.368Z,99474.00
2018-11-26T09:40:09.817Z,99471.00
2018-11-26T09:42:37.463Z,99468.00
2018-11-26T09:45:07.827Z,99468.00
2018-11-26T09:47:35.424Z,99465.00
2018-11-26T09:50:03.257Z,99471.00
2018-11-26T09:52:31.104Z,99465.00
2018-11-26T09:54:58.732Z,99466.00
2018-11-26T09:57:26.422Z,99471.00
2018-11-26T09:59:54.395Z,99471.00
2018-11-26T10:02:22.123Z,99470.00
2018-11-26T10:04:49.744Z,99469.00
2018-11-26T10:07:17.703Z,99471.00
2018-11-26T10:09:45.980Z,99470.00
2018-11-26T10:12:13.637Z,99465.00
2018-11-26T10:14:41.671Z,99469.00
2018-11-26T10:17:09.367Z,99470.00
2018-11-26T10:19:37.087Z,99470.00
2018-11-26T10:22:05.131Z,99463.00
2018-11-26T10:24:32.906Z,99457.00
2018-11-26T10:27:01.509Z,99465.00
2018-11-26T10:29:29.400Z,99467.00
2018-11-26T10:31:57.052Z,99470.00
2018-11-26T10:34:24.939Z,99468.00
2018-11-26T10:36:53.052Z,99467.00
2018-11-26T10:39:20.642Z,99466.00
2018-11-26T10:41:48.284Z,99458.00
2018-11-26T10:44:15.966Z,99455.00
2018-11-26T10:46:43.630Z,99454.00
2018-11-26T10:49:11.260Z,99456.00
2018-11-26T10:51:39.046Z,99458.00
2018-11-26T10:54:06.706Z,99460.00
2018-11-26T10:56:34.316Z,99456.00
2018-11-26T10:59:02.216Z,99452.00
2018-11-26T11:01:35.741Z,99453.00
2018-11-26T11:04:03.686Z,99459.00
2018-11-26T11:06:31.303Z,99465.00
2018-11-26T11:08:58.972Z,99466.00
2018-11-26T11:11:26.791Z,99461.00
2018-11-26T11:13:54.438Z,99461.00
2018-11-26T11:16:22.923Z,99462.00
2018-11-26T11:18:50.640Z,99458.00
2018-11-26T11:21:18.287Z,99456.00
2018-11-26T11:23:46.157Z,99455.00
2018-11-26T11:26:13.815Z,99450.00
2018-11-26T11:28:41.492Z,99453.00
2018-11-26T11:31:09.472Z,99451.00
2018-11-26T11:33:37.174Z,99445.00
2018-11-26T11:36:05.110Z,99446.00
2018-11-26T11:38:33.080Z,99449.00
2018-11-26T11:41:00.758Z,99449.00
2018-11-26T11:43:28.419Z,99449.00
2018-11-26T11:45:56.297Z,99451.00
2018-11-26T11:48:23.936Z,99445.00
2018-11-26T11:50:51.631Z,99444.00
2018-11-26T11:53:19.730Z,99446.00
2018-11-26T11:55:47.417Z,99445.00
2018-11-26T11:58:15.043Z,99445.00
2018-11-26T12:00:44.763Z,99446.00
2018-11-26T12:03:17.614Z,99445.00
2018-11-26T12:05:45.555Z,99443.00
2018-11-26T12:08:13.587Z,99443.00
2018-11-26T12:10:41.348Z,99441.00
2018-11-26T12:13:10.462Z,99440.00
2018-11-26T12:15:39.579Z,99439.00
2018-11-26T12:18:07.911Z,99441.00
2018-11-26T12:20:36.138Z,99441.00
2018-11-26T12:23:04.009Z,99441.00
2018-11-26T12:25:31.659Z,99440.00
2018-11-26T12:27:59.661Z,99438.00
2018-11-26T12:30:27.673Z,99442.00
2018-11-26T12:32:55.334Z,99441.00
2018-11-26T12:35:23.068Z,99441.00
2018-11-26T12:37:50.956Z,99440.00
2018-11-26T12:40:19.610Z,99437.00
2018-11-26T12:42:48.125Z,99436.00
2018-11-26T12:45:17.317Z,99437.00
2018-11-26T12:47:44.937Z,99435.00
2018-11-26T12:50:13.200Z,99443.00
2018-11-26T12:52:41.710Z,99434.00
2018-11-26T12:55:13.527Z,99432.00
2018-11-26T12:57:42.178Z,99438.00
2018-11-26T13:00:12.876Z,99434.00
2018-11-26T13:02:40.798Z,99435.00
2018-11-26T13:05:16.137Z,99436.00
2018-11-26T13:07:43.862Z,99433.00
2018-11-26T13:10:12.676Z,99435.00
2018-11-26T13:12:40.352Z,99439.00
2018-11-26T13:15:12.318Z,99432.00
2018-11-26T13:17:39.983Z,99435.00
2018-11-26T13:20:10.410Z,99430.00
2018-11-26T13:22:38.169Z,99435.00
2018-11-26T13:25:07.597Z,99437.00
2018-11-26T13:27:35.829Z,99438.00
2018-11-26T13:30:04.265Z,99436.00
2018-11-26T13:32:31.995Z,99435.00
2018-11-26T13:34:59.787Z,99439.00
2018-11-26T13:37:27.430Z,99438.00
2018-11-26T13:39:55.113Z,99439.00
2018-11-26T13:42:23.306Z,99446.00
2018-11-26T13:44:55.079Z,99443.00
2018-11-26T13:47:27.562Z,99450.00
2018-11-26T13:49:55.182Z,99451.00
2018-11-26T13:52:35.685Z,99455.00
2018-11-26T13:55:34.134Z,99452.00
2018-11-26T13:58:17.892Z,99455.00
2018-11-26T14:01:08.621Z,99458.00
2018-11-26T14:03:36.505Z,99468.00
2018-11-26T14:06:04.322Z,99460.00
2018-11-26T14:08:31.966Z,99467.00
2018-11-26T14:11:00.680Z,99470.00
2018-11-26T14:13:28.312Z,99479.00
2018-11-26T14:15:56.017Z,99477.00
2018-11-26T14:18:24.101Z,99483.00
2018-11-26T14:20:51.765Z,99482.00
2018-11-26T14:23:19.637Z,99485.00
2018-11-26T14:25:47.451Z,99490.00
2018-11-26T14:28:15.089Z,99484.00
2018-11-26T14:30:42.812Z,99481.00
2018-11-26T14:33:10.710Z,99492.00
2018-11-26T14:35:38.384Z,99493.00
2018-11-26T14:38:07.248Z,99491.00
2018-11-26T14:40:41.923Z,99497.00
2018-11-26T14:43:09.853Z,99499.00
2018-11-26T14:45:37.525Z,99500.00
2018-11-26T14:48:05.868Z,99503.00
2018-11-26T14:50:34.400Z,99504.00
2018-11-26T14:53:03.987Z,99504.00
2018-11-26T14:55:33.247Z,99503.00
2018-11-26T14:58:00.989Z,99505.00
2018-11-26T15:00:28.626Z,99506.00
2018-11-26T15:02:56.550Z,99505.00
2018-11-26T15:05:24.191Z,99507.00
2018-11-26T15:07:51.885Z,99515.00
2018-11-26T15:10:20.774Z,99512.00
2018-11-26T15:12:48.570Z,99510.00
2018-11-26T15:15:19.530Z,99517.00
2018-11-26T15:17:47.559Z,99517.00
2018-11-26T15:20:17.309Z,99519.00
2018-11-26T15:22:44.969Z,99533.00
2018-11-26T15:25:16.297Z,99539.00
2018-11-26T15:27:44.027Z,99536.00
2018-11-26T15:30:13.764Z,99536.00
2018-11-26T15:32:41.652Z,99536.00
2018-11-26T15:35:14.001Z,99540.00
2018-11-26T15:37:41.722Z,99537.00
2018-11-26T15:40:10.354Z,99541.00
2018-11-26T15:42:38.520Z,99543.00
2018-11-26T15:45:25.946Z,99540.00
2018-11-26T15:47:55.013Z,99541.00
2018-11-26T15:50:22.660Z,99544.00
2018-11-26T15:52:52.677Z,99543.00
2018-11-26T15:55:21.562Z,99549.00
2018-11-26T15:57:49.743Z,99552.00
2018-11-26T16:00:19.230Z,99553.00
2018-11-26T16:02:47.001Z,99551.00
2018-11-26T16:05:17.931Z,99550.00
2018-11-26T16:07:46.139Z,99545.00
2018-11-26T16:10:14.624Z,99546.00
2018-11-26T16:12:43.210Z,99548.00
2018-11-26T16:15:13.471Z,99551.00
2018-11-26T16:17:41.530Z,99554.00
2018-11-26T16:20:10.814Z,99559.00
2018-11-26T16:22:38.517Z,99559.00
2018-11-26T16:25:09.290Z,99561.00
2018-11-26T16:27:36.949Z,99567.00
2018-11-26T16:30:06.900Z,99567.00
2018-11-26T16:32:34.574Z,99568.00
2018-11-26T16:35:02.231Z,99569.00
2018-11-26T16:37:29.862Z,99572.00
2018-11-26T16:39:57.605Z,99574.00
2018-11-26T16:42:25.291Z,99568.00
2018-11-26T16:44:53.061Z,99571.00
2018-11-26T16:47:21.003Z,99571.00
2018-11-26T16:49:48.723Z,99568.00
2018-11-26T16:52:16.385Z,99568.00
2018-11-26T16:54:44.114Z,99569.00
2018-11-26T16:57:12.826Z,99572.00
2018-11-26T16:59:40.493Z,99571.00
2018-11-26T17:02:08.434Z,99572.00
2018-11-26T17:04:36.046Z,99578.00
2018-11-26T17:07:04.588Z,99576.00
2018-11-26T17:09:32.253Z,99585.00
2018-11-26T17:11:59.898Z,99583.00
2018-11-26T17:14:27.583Z,99586.00
2018-11-26T17:16:55.207Z,99587.00
2018-11-26T17:19:23.122Z,99597.00
2018-11-26T17:21:50.784Z,99596.00
2018-11-26T17:24:18.422Z,99597.00
2018-11-26T17:26:46.332Z,99595.00
2018-11-26T17:29:13.984Z,99593.00
2018-11-26T17:31:41.687Z,99594.00
2018-11-26T17:34:09.369Z,99599.00
2018-11-26T17:36:37.104Z,99598.00
2018-11-26T17:39:07.221Z,99599.00
2018-11-26T17:41:34.948Z,99601.00
2018-11-26T17:44:02.635Z,99603.00
2018-11-26T17:46:30.302Z,99604.00
2018-11-26T17:48:58.319Z,99605.00
2018-11-26T17:51:26.052Z,99607.00
2018-11-26T17:53:53.739Z,99614.00
2018-11-26T17:56:22.011Z,99624.00
2018-11-26T17:58:49.632Z,99623.00
2018-11-26T18:01:26.862Z,99625.00
2018-11-26T18:03:54.550Z,99627.00
2018-11-26T18:06:23.841Z,99628.00
2018-11-26T18:08:51.721Z,99630.00
2018-11-26T18:11:19.345Z,99634.00
2018-11-26T18:13:46.954Z,99635.00
2018-11-26T18:16:14.928Z,99634.00
2018-11-26T18:18:42.556Z,99635.00
2018-11-26T18:21:10.309Z,99636.00
2018-11-26T18:23:38.236Z,99638.00
2018-11-26T18:26:05.994Z,99645.00
2018-11-26T18:28:33.639Z,99647.00
2018-11-26T18:31:01.550Z,99651.00
2018-11-26T18:33:29.179Z,99653.00
2018-11-26T18:35:56.948Z,99653.00
2018-11-26T18:38:25.534Z,99652.00
2018-11-26T18:40:53.183Z,99654.00
2018-11-26T18:43:20.802Z,99661.00
2018-11-26T18:45:48.590Z,99662.00
2018-11-26T18:48:16.315Z,99663.00
2018-11-26T18:50:44.038Z,99665.00
2018-11-26T18:53:11.995Z,99663.00
2018-11-26T18:55:40.666Z,99669.00
2018-11-26T18:58:08.505Z,99670.00
2018-11-26T19:00:44.103Z,99667.00
2018-11-26T19:03:16.517Z,99671.00
2018-11-26T19:05:44.555Z,99677.00
2018-11-26T19:08:12.262Z,99677.00
2018-11-26T19:10:39.943Z,99675.00
2018-11-26T19:13:11.129Z,99682.00
2018-11-26T19:15:40.001Z,99678.00
2018-11-26T19:18:17.622Z,99680.00
2018-11-26T19:20:45.294Z,99687.00
2018-11-26T19:23:12.941Z,99692.00
2018-11-26T19:25:40.922Z,99689.00
2018-11-26T19:28:08.610Z,99691.00
2018-11-26T19:30:36.338Z,99685.00
2018-11-26T19:33:05.965Z,99688.00
2018-11-26T19:35:33.678Z,99693.00
2018-11-26T19:38:01.314Z,99689.00
2018-11-26T19:40:29.002Z,99692.00
2018-11-26T19:42:56.689Z,99697.00
2018-11-26T19:45:24.534Z,99697.00
2018-11-26T19:47:52.651Z,99700.00
2018-11-26T19:50:20.837Z,99703.00
2018-11-26T19:52:50.040Z,99700.00
2018-11-26T19:55:20.118Z,99703.00
2018-11-26T19:57:47.811Z,99705.00
2018-11-26T20:00:16.260Z,99705.00
2018-11-26T20:02:46.890Z,99708.00
2018-11-26T20:05:20.568Z,99710.00
2018-11-26T20:07:48.425Z,99717.00
2018-11-26T20:10:16.122Z,99719.00
2018-11-26T20:12:43.822Z,99719.00
2018-11-26T20:15:14.736Z,99715.00
2018-11-26T20:17:42.734Z,99718.00
2018-11-26T20:20:10.594Z,99716.00
2018-11-26T20:22:38.870Z,99723.00
2018-11-26T20:25:08.862Z,99721.00
2018-11-26T20:27:36.517Z,99724.00
2018-11-26T20:30:06.731Z,99724.00
2018-11-26T20:32:34.550Z,99724.00
2018-11-26T20:35:03.157Z,99734.00
2018-11-26T20:37:30.851Z,99739.00
2018-11-26T20:39:58.607Z,99745.00
2018-11-26T20:42:26.261Z,99745.00
2018-11-26T20:44:53.933Z,99753.00
2018-11-26T20:47:21.626Z,99757.00
2018-11-26T20:49:48.934Z,99759.00
2018-11-26T20:52:16.942Z,99763.00
2018-11-26T20:54:44.680Z,99763.00
2018-11-26T20:57:12.395Z,99769.00
2018-11-26T20:59:40.138Z,99763.00
2018-11-26T21:02:07.838Z,99769.00
2018-11-26T21:04:35.511Z,99769.00
2018-11-26T21:07:04.493Z,99774.00
2018-11-26T21:09:32.322Z,99774.00
2018-11-26T21:12:00.328Z,99773.00
2018-11-26T21:14:28.435Z,99770.00
2018-11-26T21:16:56.342Z,99766.00
2018-11-26T21:19:24.113Z,99768.00
2018-11-26T21:21:51.998Z,99774.00
2018-11-26T21:24:19.694Z,99771.00
2018-11-26T21:26:47.360Z,99779.00
2018-11-26T21:29:15.318Z,99781.00
2018-11-26T21:31:42.983Z,99784.00
2018-11-26T21:34:10.842Z,99785.00
2018-11-26T21:36:39.282Z,99788.00
2018-11-26T21:39:09.322Z,99797.00
2018-11-26T21:41:37.306Z,99790.00
2018-11-26T21:44:05.702Z,99798.00
2018-11-26T21:46:33.350Z,99805.00
2018-11-26T21:49:01.209Z,99805.00
2018-11-26T21:51:29.018Z,99806.00
2018-11-26T21:53:56.660Z,99806.00
2018-11-26T21:56:25.893Z,99809.00
2018-11-26T21:58:54.066Z,99807.00
2018-11-26T22:01:21.719Z,99806.00
2018-11-26T22:03:49.451Z,99810.00
2018-11-26T22:06:17.372Z,99813.00
2018-11-26T22:08:45.075Z,99812.00
2018-11-26T22:11:12.858Z,99818.00
2018-11-26T22:13:40.564Z,99814.00
2018-11-26T22:16:08.441Z,99813.00
2018-11-26T22:18:36.425Z,99816.00
2018-11-26T22:21:04.750Z,99817.00
2018-11-26T22:23:32.398Z,99826.00
2018-11-26T22:26:00.270Z,99835.00
2018-11-26T22:28:27.914Z,99838.00
2018-11-26T22:30:55.616Z,99840.00
2018-11-26T22:33:23.807Z,99846.00
2018-11-26T22:35:51.442Z,99844.00
2018-11-26T22:38:19.134Z,99852.00
2018-11-26T22:40:46.834Z,99855.00
2018-11-26T22:43:14.490Z,99856.00
2018-11-26T22:45:42.231Z,99856.00
2018-11-26T22:48:11.151Z,99860.00
2018-11-26T22:50:39.966Z,99863.00
2018-11-26T22:53:08.377Z,99863.00
2018-11-26T22:55:36.032Z,99861.00
2018-11-26T22:58:04.484Z,99867.00
2018-11-26T23:00:41.270Z,99871.00
2018-11-26T23:03:10.113Z,99871.00
2018-11-26T23:05:37.795Z,99866.00
2018-11-26T23:08:06.150Z,99866.00
2018-11-26T23:10:33.842Z,99865.00
2018-11-26T23:13:01.498Z,99861.00
2018-11-26T23:15:29.390Z,99865.00
2018-11-26T23:17:57.379Z,99869.00
2018-11-26T23:20:25.038Z,99869.00
2018-11-26T23:22:52.924Z,99868.00
2018-11-26T23:25:20.590Z,99871.00
2018-11-26T23:27:48.314Z,99874.00
2018-11-26T23:30:21.312Z,99874.00
2018-11-26T23:32:50.457Z,99880.00
2018-11-26T23:35:18.360Z,99883.00
2018-11-26T23:37:46.013Z,99879.00
2018-11-26T23:40:13.791Z,99882.00
2018-11-26T23:42:41.682Z,99882.00
2018-11-26T23:45:11.387Z,99880.00
2018-11-26T23:47:39.113Z,99885.00
2018-11-26T23:50:08.988Z,99880.00
2018-11-26T23:52:37.307Z,99882.00
2018-11-26T23:55:07.357Z,99875.00
2018-11-26T23:57:35.360Z,99887.00
